Aeroporto :
LOGIN :

Iscrizione | Disclaimer

   EN    FR    IT 

 










Sommario :    VFR   VFR Marginale   IFR   IFR Intensivo   IFR Molto Intensivo
Visibilità : 
Base nubi : 
>= 8 km
>= 3000ft
5 / 8 km
1000 / 3000 ft
1500m / 5 km
500 / 1000 ft
800 / 1500m
200 / 500 ft
< 800m
< 200 ft
Simboli :   Temporali  Nebbia  Neve Forte  Precipitazioni Forti  Vento > 20 kt
SIGMETs :   Varie  Temporali  Ghiacco  Turbolenza  Onda orograficha  Ceneri Vulcaniche






- Altitudine del aeroporto : 117 ft
- Codice IATA : NWI


EGSH - Norwich

ULTIMO METAR :
  • 231150Z 13006KT CAVOK 13/10 Q1015

METARs OBSOLETI :
  • 231120Z 12006KT 090V150 CAVOK 14/11 Q1015
  • 231050Z VRB03KT CAVOK 11/10 Q1016
  • 231020Z VRB01KT 9000 NSC 10/10 Q1016
  • 230950Z VRB01KT 7000 NSC 09/08 Q1016
  • 230920Z VRB01KT 7000 NSC 07/07 Q1017

TAF TAF EGSH
Valido dal 23 a 12 ore il 23 a 21 ore UTC


231056Z 2312/2321 VRB03KT 9999 FEW035
BECMG 2312/2314 12010KT
TEMPO 2317/2320 5000 RA
BECMG 2318/2321 BKN012
PROB30 2318/2321 BKN006
ATIS : +44 1603 420 640



MetMap, La meteo Aeronautica in un colpo d'occhio ! - Copyright ORBIFLY Dicembre 2007 - Disclaimer

ORBIFLY MET'MAP TEAM :

Programmazione e sviluppo : Alexandra Zaïnal
Concezione e sviluppo : Baudouin d'Aumeries
Co-Programmazione e sviluppo : Marc-Olivier Méhu
Supporto tecnico e logistico : Manuel Goepfert
Aiuto per la traduzione : Arnaldo La Scala

Contatto : metmap@orbifly.com




FONTI E CREDITI :

   NOAA